To NAV CANADA Home Page Login to a new session Search on AWWS site Feedback and Comments Disclaimer Vers la page française équivalente Tips FAQ What's new on the site To the Forecasts and Observations / NOTAM section To "File a Flight Plan" website Publications and other links Update of the User's profile FIC Telephone Numbers My Weather Data Folder Route Weather Data Regional Weather Data Local Weather Data To the Forecasts and Observations / NOTAM section
Request Generated 09/01/2015 at 20:17:04 UTC . Weather information available at that time is displayed.

METAR/TAF

WINDSOR/ON    

METAR CYQG 012000Z 20010KT 12SM FEW038TCU SCT300 29/22 A3004 RMK
TCU1CS2 SLP170 DENSITY ALT 2200FT=
METAR CYQG 011900Z 23005KT 170V300 12SM FEW038 SCT300 30/22 A3005 RMK
CU2CI1 SLP174 DENSITY ALT 2300FT=
METAR CYQG 011800Z 23008KT 12SM FEW039 SCT300 30/22 A3007 RMK CU2CI2
SLP179 DENSITY ALT 2300FT=

TAF CYQG 011738Z 0118/0218 24006KT P6SM FEW040 TEMPO 0118/0202 BKN040
FM020200 19005KT P6SM FEW040
FM020600 23006KT P6SM SCT010 TEMPO 0206/0212 3SM BR BKN010
FM021200 22004KT P6SM SKC
RMK NXT FCST BY 020000Z=
Your time UTC time
Weather data provided by Environment Canada and NAV CANADA